sensor_id;sensor_type;location;lat;lon;timestamp;P1;durP1;ratioP1;P2;durP2;ratioP2
57627;SDS011;43451;49.060;10.616;2022-12-10T00:01:11;25.65;;;13.25;;
57627;SDS011;43451;49.060;10.616;2022-12-10T00:03:38;25.77;;;13.20;;
57627;SDS011;43451;49.060;10.616;2022-12-10T00:06:05;26.15;;;13.45;;
57627;SDS011;43451;49.060;10.616;2022-12-10T00:08:33;25.08;;;12.90;;
57627;SDS011;43451;49.060;10.616;2022-12-10T00:11:02;25.13;;;13.13;;
57627;SDS011;43451;49.060;10.616;2022-12-10T00:13:29;23.73;;;13.43;;
57627;SDS011;43451;49.060;10.616;2022-12-10T00:15:54;23.90;;;13.00;;
57627;SDS011;43451;49.060;10.616;2022-12-10T00:18:20;24.55;;;12.85;;
57627;SDS011;43451;49.060;10.616;2022-12-10T00:20:45;25.48;;;13.32;;
57627;SDS011;43451;49.060;10.616;2022-12-10T00:23:11;26.85;;;13.23;;
57627;SDS011;43451;49.060;10.616;2022-12-10T00:25:36;25.15;;;12.52;;
57627;SDS011;43451;49.060;10.616;2022-12-10T00:28:02;25.23;;;13.07;;
57627;SDS011;43451;49.060;10.616;2022-12-10T00:30:27;25.42;;;13.13;;
57627;SDS011;43451;49.060;10.616;2022-12-10T00:32:53;24.40;;;13.18;;
57627;SDS011;43451;49.060;10.616;2022-12-10T00:35:18;24.42;;;13.75;;
57627;SDS011;43451;49.060;10.616;2022-12-10T00:37:43;26.40;;;13.25;;
57627;SDS011;43451;49.060;10.616;2022-12-10T00:40:09;24.75;;;12.80;;
57627;SDS011;43451;49.060;10.616;2022-12-10T00:42:36;25.58;;;13.73;;
57627;SDS011;43451;49.060;10.616;2022-12-10T00:45:02;26.00;;;14.20;;
57627;SDS011;43451;49.060;10.616;2022-12-10T00:47:29;27.85;;;13.73;;
57627;SDS011;43451;49.060;10.616;2022-12-10T00:49:54;28.15;;;13.98;;
57627;SDS011;43451;49.060;10.616;2022-12-10T00:52:20;25.67;;;13.23;;
57627;SDS011;43451;49.060;10.616;2022-12-10T00:54:45;25.75;;;13.23;;
57627;SDS011;43451;49.060;10.616;2022-12-10T00:57:10;28.80;;;13.60;;
57627;SDS011;43451;49.060;10.616;2022-12-10T00:59:36;24.40;;;12.95;;
57627;SDS011;43451;49.060;10.616;2022-12-10T01:02:02;25.58;;;13.88;;
57627;SDS011;43451;49.060;10.616;2022-12-10T01:04:27;24.27;;;13.45;;
57627;SDS011;43451;49.060;10.616;2022-12-10T01:06:53;26.98;;;13.88;;
57627;SDS011;43451;49.060;10.616;2022-12-10T01:09:23;28.58;;;14.32;;
57627;SDS011;43451;49.060;10.616;2022-12-10T01:11:50;26.98;;;13.77;;
57627;SDS011;43451;49.060;10.616;2022-12-10T01:14:19;24.63;;;13.05;;
57627;SDS011;43451;49.060;10.616;2022-12-10T01:16:48;26.52;;;13.65;;
57627;SDS011;43451;49.060;10.616;2022-12-10T01:19:14;23.20;;;12.85;;
57627;SDS011;43451;49.060;10.616;2022-12-10T01:21:40;23.73;;;13.43;;
57627;SDS011;43451;49.060;10.616;2022-12-10T01:24:05;26.45;;;13.38;;
57627;SDS011;43451;49.060;10.616;2022-12-10T01:26:32;26.23;;;13.85;;
57627;SDS011;43451;49.060;10.616;2022-12-10T01:28:59;26.33;;;14.07;;
57627;SDS011;43451;49.060;10.616;2022-12-10T01:31:31;26.20;;;13.90;;
57627;SDS011;43451;49.060;10.616;2022-12-10T01:33:59;24.75;;;13.70;;
57627;SDS011;43451;49.060;10.616;2022-12-10T01:36:29;25.00;;;14.23;;
57627;SDS011;43451;49.060;10.616;2022-12-10T01:38:56;26.77;;;14.20;;
57627;SDS011;43451;49.060;10.616;2022-12-10T01:41:24;27.80;;;14.15;;
57627;SDS011;43451;49.060;10.616;2022-12-10T01:46:39;25.92;;;14.10;;
57627;SDS011;43451;49.060;10.616;2022-12-10T01:49:11;27.50;;;14.25;;
57627;SDS011;43451;49.060;10.616;2022-12-10T01:51:48;29.10;;;14.77;;
57627;SDS011;43451;49.060;10.616;2022-12-10T01:54:26;26.02;;;14.65;;
57627;SDS011;43451;49.060;10.616;2022-12-10T01:57:03;25.70;;;13.93;;
57627;SDS011;43451;49.060;10.616;2022-12-10T01:59:33;26.35;;;14.43;;
57627;SDS011;43451;49.060;10.616;2022-12-10T02:05:02;24.85;;;13.88;;
57627;SDS011;43451;49.060;10.616;2022-12-10T02:15:52;26.67;;;14.05;;
57627;SDS011;43451;49.060;10.616;2022-12-10T02:18:30;25.88;;;13.60;;
57627;SDS011;43451;49.060;10.616;2022-12-10T02:21:06;26.55;;;13.73;;
57627;SDS011;43451;49.060;10.616;2022-12-10T02:23:54;26.48;;;13.85;;
57627;SDS011;43451;49.060;10.616;2022-12-10T02:29:18;26.45;;;14.40;;
57627;SDS011;43451;49.060;10.616;2022-12-10T02:31:50;28.35;;;14.90;;
57627;SDS011;43451;49.060;10.616;2022-12-10T02:34:20;26.95;;;13.77;;
57627;SDS011;43451;49.060;10.616;2022-12-10T02:39:18;29.75;;;14.02;;
57627;SDS011;43451;49.060;10.616;2022-12-10T02:41:53;31.02;;;15.32;;
57627;SDS011;43451;49.060;10.616;2022-12-10T02:44:19;27.15;;;13.85;;
57627;SDS011;43451;49.060;10.616;2022-12-10T02:46:49;26.13;;;13.70;;
57627;SDS011;43451;49.060;10.616;2022-12-10T02:49:17;26.00;;;13.35;;
57627;SDS011;43451;49.060;10.616;2022-12-10T02:51:42;28.95;;;14.55;;
57627;SDS011;43451;49.060;10.616;2022-12-10T02:57:10;28.27;;;13.93;;
57627;SDS011;43451;49.060;10.616;2022-12-10T03:13:09;26.83;;;13.95;;
57627;SDS011;43451;49.060;10.616;2022-12-10T03:15:38;27.45;;;14.20;;
57627;SDS011;43451;49.060;10.616;2022-12-10T03:18:06;26.58;;;13.48;;
57627;SDS011;43451;49.060;10.616;2022-12-10T03:20:34;27.83;;;14.60;;
57627;SDS011;43451;49.060;10.616;2022-12-10T03:23:04;26.58;;;15.07;;
57627;SDS011;43451;49.060;10.616;2022-12-10T03:25:34;28.75;;;14.80;;
57627;SDS011;43451;49.060;10.616;2022-12-10T03:28:02;30.50;;;14.43;;
57627;SDS011;43451;49.060;10.616;2022-12-10T03:30:29;30.48;;;15.13;;
57627;SDS011;43451;49.060;10.616;2022-12-10T03:32:57;27.30;;;14.60;;
57627;SDS011;43451;49.060;10.616;2022-12-10T03:35:23;25.38;;;13.77;;
57627;SDS011;43451;49.060;10.616;2022-12-10T03:37:49;30.00;;;14.15;;
57627;SDS011;43451;49.060;10.616;2022-12-10T03:40:16;28.38;;;13.98;;
57627;SDS011;43451;49.060;10.616;2022-12-10T03:42:45;29.60;;;14.65;;
57627;SDS011;43451;49.060;10.616;2022-12-10T03:45:10;28.95;;;14.25;;
57627;SDS011;43451;49.060;10.616;2022-12-10T03:47:36;28.23;;;14.45;;
57627;SDS011;43451;49.060;10.616;2022-12-10T03:50:02;28.40;;;13.90;;
57627;SDS011;43451;49.060;10.616;2022-12-10T03:52:28;31.40;;;14.88;;
57627;SDS011;43451;49.060;10.616;2022-12-10T03:54:53;27.60;;;14.70;;
57627;SDS011;43451;49.060;10.616;2022-12-10T03:57:19;29.02;;;14.07;;
57627;SDS011;43451;49.060;10.616;2022-12-10T03:59:44;26.67;;;14.38;;
57627;SDS011;43451;49.060;10.616;2022-12-10T04:02:09;29.25;;;14.25;;
57627;SDS011;43451;49.060;10.616;2022-12-10T04:04:35;29.73;;;14.20;;
57627;SDS011;43451;49.060;10.616;2022-12-10T04:07:01;27.75;;;13.65;;
57627;SDS011;43451;49.060;10.616;2022-12-10T04:09:27;33.30;;;15.90;;
57627;SDS011;43451;49.060;10.616;2022-12-10T04:11:56;28.77;;;14.98;;
57627;SDS011;43451;49.060;10.616;2022-12-10T04:14:23;27.27;;;14.40;;
57627;SDS011;43451;49.060;10.616;2022-12-10T04:17:07;31.00;;;15.00;;
57627;SDS011;43451;49.060;10.616;2022-12-10T04:19:32;27.27;;;14.30;;
57627;SDS011;43451;49.060;10.616;2022-12-10T04:21:58;29.05;;;15.15;;
57627;SDS011;43451;49.060;10.616;2022-12-10T04:24:41;26.27;;;14.13;;
57627;SDS011;43451;49.060;10.616;2022-12-10T04:27:27;26.15;;;13.55;;
57627;SDS011;43451;49.060;10.616;2022-12-10T04:32:20;28.05;;;14.10;;
57627;SDS011;43451;49.060;10.616;2022-12-10T04:34:46;27.98;;;14.00;;
57627;SDS011;43451;49.060;10.616;2022-12-10T04:37:12;26.08;;;14.32;;
57627;SDS011;43451;49.060;10.616;2022-12-10T04:39:38;29.42;;;15.20;;
57627;SDS011;43451;49.060;10.616;2022-12-10T04:42:04;28.65;;;15.13;;
57627;SDS011;43451;49.060;10.616;2022-12-10T04:44:30;27.35;;;14.60;;
57627;SDS011;43451;49.060;10.616;2022-12-10T04:46:55;26.92;;;14.15;;
57627;SDS011;43451;49.060;10.616;2022-12-10T04:49:21;27.35;;;14.15;;
57627;SDS011;43451;49.060;10.616;2022-12-10T04:51:47;28.92;;;14.43;;
57627;SDS011;43451;49.060;10.616;2022-12-10T04:54:13;28.17;;;14.63;;
57627;SDS011;43451;49.060;10.616;2022-12-10T04:56:39;29.98;;;15.13;;
57627;SDS011;43451;49.060;10.616;2022-12-10T04:59:05;30.63;;;14.88;;
57627;SDS011;43451;49.060;10.616;2022-12-10T05:01:31;26.90;;;14.73;;
57627;SDS011;43451;49.060;10.616;2022-12-10T05:03:58;27.67;;;14.27;;
57627;SDS011;43451;49.060;10.616;2022-12-10T05:06:24;28.13;;;14.52;;
57627;SDS011;43451;49.060;10.616;2022-12-10T05:08:50;27.52;;;14.52;;
57627;SDS011;43451;49.060;10.616;2022-12-10T05:11:16;26.20;;;14.05;;
57627;SDS011;43451;49.060;10.616;2022-12-10T05:13:44;26.40;;;14.13;;
57627;SDS011;43451;49.060;10.616;2022-12-10T05:16:13;26.67;;;13.65;;
57627;SDS011;43451;49.060;10.616;2022-12-10T05:18:40;27.77;;;14.98;;
57627;SDS011;43451;49.060;10.616;2022-12-10T05:21:09;29.75;;;14.93;;
57627;SDS011;43451;49.060;10.616;2022-12-10T05:23:38;27.83;;;14.63;;
57627;SDS011;43451;49.060;10.616;2022-12-10T05:28:43;29.08;;;14.95;;
57627;SDS011;43451;49.060;10.616;2022-12-10T05:31:23;28.40;;;14.93;;
57627;SDS011;43451;49.060;10.616;2022-12-10T05:33:53;28.42;;;15.13;;
57627;SDS011;43451;49.060;10.616;2022-12-10T05:36:21;30.08;;;14.80;;
57627;SDS011;43451;49.060;10.616;2022-12-10T05:38:48;27.00;;;14.02;;
57627;SDS011;43451;49.060;10.616;2022-12-10T05:41:15;37.78;;;14.75;;
57627;SDS011;43451;49.060;10.616;2022-12-10T05:43:53;26.73;;;14.32;;
57627;SDS011;43451;49.060;10.616;2022-12-10T05:46:21;27.45;;;14.32;;
57627;SDS011;43451;49.060;10.616;2022-12-10T05:51:17;30.38;;;15.95;;
57627;SDS011;43451;49.060;10.616;2022-12-10T05:53:45;29.30;;;14.68;;
57627;SDS011;43451;49.060;10.616;2022-12-10T05:56:12;30.17;;;14.73;;
57627;SDS011;43451;49.060;10.616;2022-12-10T05:58:40;32.60;;;15.55;;
57627;SDS011;43451;49.060;10.616;2022-12-10T06:01:17;28.52;;;14.95;;
57627;SDS011;43451;49.060;10.616;2022-12-10T06:03:45;28.65;;;15.40;;
57627;SDS011;43451;49.060;10.616;2022-12-10T06:06:11;30.55;;;15.98;;
57627;SDS011;43451;49.060;10.616;2022-12-10T06:08:37;31.80;;;16.83;;
57627;SDS011;43451;49.060;10.616;2022-12-10T06:11:04;30.55;;;16.63;;
57627;SDS011;43451;49.060;10.616;2022-12-10T06:13:33;30.33;;;14.63;;
57627;SDS011;43451;49.060;10.616;2022-12-10T06:15:59;24.85;;;13.95;;
57627;SDS011;43451;49.060;10.616;2022-12-10T06:18:24;27.92;;;14.70;;
57627;SDS011;43451;49.060;10.616;2022-12-10T06:20:50;28.17;;;14.93;;
57627;SDS011;43451;49.060;10.616;2022-12-10T06:23:16;30.17;;;15.80;;
57627;SDS011;43451;49.060;10.616;2022-12-10T06:25:41;29.75;;;16.20;;
57627;SDS011;43451;49.060;10.616;2022-12-10T06:28:07;29.27;;;14.40;;
57627;SDS011;43451;49.060;10.616;2022-12-10T06:30:33;27.48;;;14.70;;
57627;SDS011;43451;49.060;10.616;2022-12-10T06:32:59;26.25;;;13.93;;
57627;SDS011;43451;49.060;10.616;2022-12-10T06:35:25;25.50;;;13.45;;
57627;SDS011;43451;49.060;10.616;2022-12-10T06:37:50;27.98;;;15.07;;
57627;SDS011;43451;49.060;10.616;2022-12-10T06:40:16;28.50;;;15.18;;
57627;SDS011;43451;49.060;10.616;2022-12-10T06:42:41;31.25;;;14.35;;
57627;SDS011;43451;49.060;10.616;2022-12-10T06:45:07;27.23;;;14.32;;
57627;SDS011;43451;49.060;10.616;2022-12-10T06:47:33;30.85;;;15.30;;
57627;SDS011;43451;49.060;10.616;2022-12-10T06:49:58;30.90;;;15.25;;
57627;SDS011;43451;49.060;10.616;2022-12-10T06:52:24;29.25;;;15.40;;
57627;SDS011;43451;49.060;10.616;2022-12-10T06:54:49;30.30;;;15.30;;
57627;SDS011;43451;49.060;10.616;2022-12-10T06:57:15;28.73;;;14.65;;
57627;SDS011;43451;49.060;10.616;2022-12-10T06:59:41;31.40;;;15.60;;
57627;SDS011;43451;49.060;10.616;2022-12-10T07:02:07;32.05;;;15.98;;
57627;SDS011;43451;49.060;10.616;2022-12-10T07:04:34;28.90;;;15.25;;
57627;SDS011;43451;49.060;10.616;2022-12-10T07:06:59;30.10;;;15.48;;
57627;SDS011;43451;49.060;10.616;2022-12-10T07:09:24;30.17;;;15.82;;
57627;SDS011;43451;49.060;10.616;2022-12-10T07:11:50;33.85;;;16.80;;
57627;SDS011;43451;49.060;10.616;2022-12-10T07:14:16;34.30;;;18.30;;
57627;SDS011;43451;49.060;10.616;2022-12-10T07:16:42;32.70;;;16.33;;
57627;SDS011;43451;49.060;10.616;2022-12-10T07:19:08;30.77;;;16.50;;
57627;SDS011;43451;49.060;10.616;2022-12-10T07:21:36;33.60;;;16.45;;
57627;SDS011;43451;49.060;10.616;2022-12-10T07:24:04;33.17;;;16.35;;
57627;SDS011;43451;49.060;10.616;2022-12-10T07:26:37;35.65;;;16.75;;
57627;SDS011;43451;49.060;10.616;2022-12-10T07:29:04;33.90;;;16.40;;
57627;SDS011;43451;49.060;10.616;2022-12-10T07:31:31;33.00;;;17.00;;
57627;SDS011;43451;49.060;10.616;2022-12-10T07:33:57;31.02;;;15.70;;
57627;SDS011;43451;49.060;10.616;2022-12-10T07:36:23;33.70;;;17.08;;
57627;SDS011;43451;49.060;10.616;2022-12-10T07:38:53;32.70;;;16.42;;
57627;SDS011;43451;49.060;10.616;2022-12-10T07:41:19;35.25;;;17.02;;
57627;SDS011;43451;49.060;10.616;2022-12-10T07:43:46;31.58;;;16.27;;
57627;SDS011;43451;49.060;10.616;2022-12-10T07:46:16;32.35;;;16.52;;
57627;SDS011;43451;49.060;10.616;2022-12-10T07:48:42;33.83;;;16.45;;
57627;SDS011;43451;49.060;10.616;2022-12-10T07:51:09;30.93;;;16.50;;
57627;SDS011;43451;49.060;10.616;2022-12-10T07:53:35;30.83;;;15.88;;
57627;SDS011;43451;49.060;10.616;2022-12-10T07:56:00;35.00;;;17.52;;
57627;SDS011;43451;49.060;10.616;2022-12-10T07:58:27;32.70;;;17.35;;
57627;SDS011;43451;49.060;10.616;2022-12-10T08:00:53;31.73;;;16.75;;
57627;SDS011;43451;49.060;10.616;2022-12-10T08:03:18;35.95;;;17.88;;
57627;SDS011;43451;49.060;10.616;2022-12-10T08:05:44;30.88;;;16.02;;
57627;SDS011;43451;49.060;10.616;2022-12-10T08:08:09;33.70;;;16.23;;
57627;SDS011;43451;49.060;10.616;2022-12-10T08:10:35;32.95;;;17.55;;
57627;SDS011;43451;49.060;10.616;2022-12-10T08:13:02;37.33;;;16.70;;
57627;SDS011;43451;49.060;10.616;2022-12-10T08:15:28;36.03;;;17.17;;
57627;SDS011;43451;49.060;10.616;2022-12-10T08:17:54;36.90;;;17.40;;
57627;SDS011;43451;49.060;10.616;2022-12-10T08:20:20;30.55;;;15.57;;
57627;SDS011;43451;49.060;10.616;2022-12-10T08:22:46;34.67;;;17.13;;
57627;SDS011;43451;49.060;10.616;2022-12-10T08:25:12;34.95;;;16.70;;
57627;SDS011;43451;49.060;10.616;2022-12-10T08:27:37;36.40;;;17.90;;
57627;SDS011;43451;49.060;10.616;2022-12-10T08:30:03;33.08;;;16.83;;
57627;SDS011;43451;49.060;10.616;2022-12-10T08:32:28;30.67;;;15.95;;
57627;SDS011;43451;49.060;10.616;2022-12-10T08:34:54;34.55;;;16.55;;
57627;SDS011;43451;49.060;10.616;2022-12-10T08:37:20;37.40;;;18.25;;
57627;SDS011;43451;49.060;10.616;2022-12-10T08:39:45;33.22;;;16.55;;
57627;SDS011;43451;49.060;10.616;2022-12-10T08:42:11;34.10;;;16.80;;
57627;SDS011;43451;49.060;10.616;2022-12-10T08:44:36;32.33;;;16.23;;
57627;SDS011;43451;49.060;10.616;2022-12-10T08:47:02;33.22;;;17.13;;
57627;SDS011;43451;49.060;10.616;2022-12-10T08:49:27;34.58;;;15.90;;
57627;SDS011;43451;49.060;10.616;2022-12-10T08:51:53;30.67;;;15.85;;
57627;SDS011;43451;49.060;10.616;2022-12-10T08:54:19;31.35;;;16.20;;
57627;SDS011;43451;49.060;10.616;2022-12-10T08:56:44;32.28;;;16.63;;
57627;SDS011;43451;49.060;10.616;2022-12-10T08:59:10;33.95;;;16.55;;
57627;SDS011;43451;49.060;10.616;2022-12-10T09:01:35;34.33;;;16.23;;
57627;SDS011;43451;49.060;10.616;2022-12-10T09:04:01;33.47;;;15.85;;
57627;SDS011;43451;49.060;10.616;2022-12-10T09:06:27;34.30;;;16.38;;
57627;SDS011;43451;49.060;10.616;2022-12-10T09:08:53;33.28;;;16.38;;
57627;SDS011;43451;49.060;10.616;2022-12-10T09:13:44;32.58;;;16.23;;
57627;SDS011;43451;49.060;10.616;2022-12-10T09:16:09;32.33;;;16.00;;
57627;SDS011;43451;49.060;10.616;2022-12-10T09:18:35;35.08;;;16.67;;
57627;SDS011;43451;49.060;10.616;2022-12-10T09:21:05;32.20;;;15.57;;
57627;SDS011;43451;49.060;10.616;2022-12-10T09:23:31;30.77;;;15.48;;
57627;SDS011;43451;49.060;10.616;2022-12-10T09:25:57;32.72;;;16.23;;
57627;SDS011;43451;49.060;10.616;2022-12-10T09:28:22;33.05;;;16.42;;
57627;SDS011;43451;49.060;10.616;2022-12-10T09:30:54;35.25;;;16.33;;
57627;SDS011;43451;49.060;10.616;2022-12-10T09:33:23;30.83;;;15.57;;
57627;SDS011;43451;49.060;10.616;2022-12-10T09:35:49;33.25;;;16.35;;
57627;SDS011;43451;49.060;10.616;2022-12-10T09:38:15;32.67;;;16.95;;
57627;SDS011;43451;49.060;10.616;2022-12-10T09:40:49;32.55;;;16.52;;
57627;SDS011;43451;49.060;10.616;2022-12-10T09:49:05;30.98;;;16.85;;
57627;SDS011;43451;49.060;10.616;2022-12-10T09:51:37;38.45;;;16.65;;
57627;SDS011;43451;49.060;10.616;2022-12-10T09:54:04;33.53;;;17.23;;
57627;SDS011;43451;49.060;10.616;2022-12-10T09:56:43;31.75;;;15.98;;
57627;SDS011;43451;49.060;10.616;2022-12-10T09:59:53;33.47;;;16.42;;
57627;SDS011;43451;49.060;10.616;2022-12-10T10:04:52;31.08;;;15.60;;
57627;SDS011;43451;49.060;10.616;2022-12-10T10:07:31;31.30;;;16.38;;
57627;SDS011;43451;49.060;10.616;2022-12-10T10:10:06;31.35;;;16.35;;
57627;SDS011;43451;49.060;10.616;2022-12-10T10:12:39;33.78;;;16.63;;
57627;SDS011;43451;49.060;10.616;2022-12-10T10:15:15;33.10;;;16.58;;
57627;SDS011;43451;49.060;10.616;2022-12-10T10:17:43;34.17;;;17.23;;
57627;SDS011;43451;49.060;10.616;2022-12-10T10:20:12;34.25;;;17.42;;
57627;SDS011;43451;49.060;10.616;2022-12-10T10:22:39;32.75;;;16.90;;
57627;SDS011;43451;49.060;10.616;2022-12-10T10:25:06;32.75;;;16.35;;
57627;SDS011;43451;49.060;10.616;2022-12-10T10:27:42;35.22;;;18.33;;
57627;SDS011;43451;49.060;10.616;2022-12-10T10:30:13;34.65;;;17.10;;
57627;SDS011;43451;49.060;10.616;2022-12-10T10:32:50;36.13;;;17.63;;
57627;SDS011;43451;49.060;10.616;2022-12-10T10:38:01;37.38;;;17.08;;
57627;SDS011;43451;49.060;10.616;2022-12-10T10:43:03;35.53;;;16.70;;
57627;SDS011;43451;49.060;10.616;2022-12-10T10:48:16;38.20;;;18.33;;
57627;SDS011;43451;49.060;10.616;2022-12-10T10:50:45;39.13;;;18.60;;
57627;SDS011;43451;49.060;10.616;2022-12-10T10:53:21;33.47;;;17.05;;
57627;SDS011;43451;49.060;10.616;2022-12-10T10:55:48;36.20;;;17.40;;
57627;SDS011;43451;49.060;10.616;2022-12-10T10:58:18;34.33;;;16.88;;
57627;SDS011;43451;49.060;10.616;2022-12-10T11:00:52;39.30;;;18.33;;
57627;SDS011;43451;49.060;10.616;2022-12-10T11:03:19;38.08;;;18.05;;
57627;SDS011;43451;49.060;10.616;2022-12-10T11:05:46;36.83;;;17.58;;
57627;SDS011;43451;49.060;10.616;2022-12-10T11:08:13;37.53;;;18.02;;
57627;SDS011;43451;49.060;10.616;2022-12-10T11:11:02;40.65;;;19.30;;
57627;SDS011;43451;49.060;10.616;2022-12-10T11:13:35;39.72;;;18.85;;
57627;SDS011;43451;49.060;10.616;2022-12-10T11:16:16;38.30;;;18.50;;
57627;SDS011;43451;49.060;10.616;2022-12-10T11:19:03;34.42;;;17.48;;
57627;SDS011;43451;49.060;10.616;2022-12-10T11:21:30;38.70;;;18.35;;
57627;SDS011;43451;49.060;10.616;2022-12-10T11:23:57;36.65;;;18.08;;
57627;SDS011;43451;49.060;10.616;2022-12-10T11:46:28;37.05;;;18.20;;
57627;SDS011;43451;49.060;10.616;2022-12-10T11:57:39;38.85;;;17.88;;
57627;SDS011;43451;49.060;10.616;2022-12-10T12:00:24;39.80;;;18.05;;
57627;SDS011;43451;49.060;10.616;2022-12-10T12:03:07;38.17;;;18.85;;
57627;SDS011;43451;49.060;10.616;2022-12-10T12:14:08;39.67;;;19.05;;
57627;SDS011;43451;49.060;10.616;2022-12-10T12:17:02;37.87;;;16.87;;
57627;SDS011;43451;49.060;10.616;2022-12-10T12:19:31;38.75;;;17.75;;
57627;SDS011;43451;49.060;10.616;2022-12-10T12:21:59;38.00;;;17.52;;
57627;SDS011;43451;49.060;10.616;2022-12-10T12:40:52;34.95;;;17.25;;
57627;SDS011;43451;49.060;10.616;2022-12-10T12:43:24;37.00;;;18.08;;
57627;SDS011;43451;49.060;10.616;2022-12-10T12:45:58;35.22;;;17.05;;
57627;SDS011;43451;49.060;10.616;2022-12-10T12:51:31;38.03;;;19.20;;
57627;SDS011;43451;49.060;10.616;2022-12-10T12:54:03;36.50;;;18.27;;
57627;SDS011;43451;49.060;10.616;2022-12-10T13:04:26;40.72;;;19.10;;
57627;SDS011;43451;49.060;10.616;2022-12-10T13:07:53;38.00;;;18.35;;
57627;SDS011;43451;49.060;10.616;2022-12-10T13:09:48;39.05;;;18.15;;
57627;SDS011;43451;49.060;10.616;2022-12-10T13:12:45;43.58;;;18.17;;
57627;SDS011;43451;49.060;10.616;2022-12-10T13:15:20;40.55;;;20.40;;
57627;SDS011;43451;49.060;10.616;2022-12-10T13:18:03;42.42;;;19.55;;
57627;SDS011;43451;49.060;10.616;2022-12-10T13:28:25;43.80;;;21.00;;
57627;SDS011;43451;49.060;10.616;2022-12-10T13:41:33;49.15;;;21.75;;
57627;SDS011;43451;49.060;10.616;2022-12-10T13:44:25;46.38;;;21.33;;
57627;SDS011;43451;49.060;10.616;2022-12-10T13:47:00;44.22;;;21.38;;
57627;SDS011;43451;49.060;10.616;2022-12-10T13:49:29;49.75;;;20.92;;
57627;SDS011;43451;49.060;10.616;2022-12-10T13:52:12;39.65;;;19.38;;
57627;SDS011;43451;49.060;10.616;2022-12-10T14:00:22;42.63;;;20.27;;
57627;SDS011;43451;49.060;10.616;2022-12-10T14:08:17;40.72;;;20.13;;
57627;SDS011;43451;49.060;10.616;2022-12-10T14:10:45;43.28;;;20.40;;
57627;SDS011;43451;49.060;10.616;2022-12-10T14:13:13;38.58;;;18.77;;
57627;SDS011;43451;49.060;10.616;2022-12-10T14:15:42;38.42;;;18.65;;
57627;SDS011;43451;49.060;10.616;2022-12-10T14:18:16;38.90;;;17.77;;
57627;SDS011;43451;49.060;10.616;2022-12-10T14:20:44;35.92;;;17.00;;
57627;SDS011;43451;49.060;10.616;2022-12-10T14:26:13;40.42;;;18.33;;
57627;SDS011;43451;49.060;10.616;2022-12-10T14:29:01;38.55;;;18.35;;
57627;SDS011;43451;49.060;10.616;2022-12-10T14:31:36;37.65;;;18.05;;
57627;SDS011;43451;49.060;10.616;2022-12-10T14:34:11;41.30;;;18.98;;
57627;SDS011;43451;49.060;10.616;2022-12-10T14:36:45;44.88;;;20.30;;
57627;SDS011;43451;49.060;10.616;2022-12-10T14:39:24;45.33;;;19.02;;
57627;SDS011;43451;49.060;10.616;2022-12-10T14:41:53;45.65;;;20.15;;
57627;SDS011;43451;49.060;10.616;2022-12-10T14:44:24;42.80;;;19.05;;
57627;SDS011;43451;49.060;10.616;2022-12-10T14:46:50;43.08;;;20.33;;
57627;SDS011;43451;49.060;10.616;2022-12-10T14:49:19;42.75;;;19.33;;
57627;SDS011;43451;49.060;10.616;2022-12-10T14:51:46;40.15;;;18.15;;
57627;SDS011;43451;49.060;10.616;2022-12-10T14:54:25;41.95;;;19.15;;
57627;SDS011;43451;49.060;10.616;2022-12-10T14:57:01;38.13;;;17.30;;
57627;SDS011;43451;49.060;10.616;2022-12-10T14:59:44;41.42;;;18.20;;
57627;SDS011;43451;49.060;10.616;2022-12-10T15:04:47;41.65;;;18.65;;
57627;SDS011;43451;49.060;10.616;2022-12-10T15:07:14;39.97;;;18.33;;
57627;SDS011;43451;49.060;10.616;2022-12-10T15:09:45;40.00;;;17.85;;
57627;SDS011;43451;49.060;10.616;2022-12-10T15:15:01;39.95;;;17.98;;
57627;SDS011;43451;49.060;10.616;2022-12-10T15:17:33;37.72;;;17.67;;
57627;SDS011;43451;49.060;10.616;2022-12-10T15:20:01;40.35;;;17.42;;
57627;SDS011;43451;49.060;10.616;2022-12-10T15:22:26;37.80;;;17.13;;
57627;SDS011;43451;49.060;10.616;2022-12-10T15:24:53;39.15;;;17.13;;
57627;SDS011;43451;49.060;10.616;2022-12-10T15:27:23;38.35;;;18.60;;
57627;SDS011;43451;49.060;10.616;2022-12-10T15:29:51;38.53;;;17.65;;
57627;SDS011;43451;49.060;10.616;2022-12-10T15:32:26;39.10;;;18.10;;
57627;SDS011;43451;49.060;10.616;2022-12-10T15:34:54;40.17;;;18.83;;
57627;SDS011;43451;49.060;10.616;2022-12-10T15:37:27;36.97;;;17.40;;
57627;SDS011;43451;49.060;10.616;2022-12-10T15:40:01;33.95;;;16.42;;
57627;SDS011;43451;49.060;10.616;2022-12-10T15:45:43;34.17;;;16.35;;
57627;SDS011;43451;49.060;10.616;2022-12-10T15:48:03;37.60;;;17.40;;
57627;SDS011;43451;49.060;10.616;2022-12-10T15:50:32;37.38;;;16.95;;
57627;SDS011;43451;49.060;10.616;2022-12-10T15:52:58;37.50;;;17.27;;
57627;SDS011;43451;49.060;10.616;2022-12-10T15:55:23;35.92;;;17.35;;
57627;SDS011;43451;49.060;10.616;2022-12-10T15:57:49;36.30;;;17.38;;
57627;SDS011;43451;49.060;10.616;2022-12-10T16:00:16;33.28;;;16.10;;
57627;SDS011;43451;49.060;10.616;2022-12-10T16:02:52;35.15;;;16.45;;
57627;SDS011;43451;49.060;10.616;2022-12-10T16:05:22;36.97;;;17.20;;
57627;SDS011;43451;49.060;10.616;2022-12-10T16:07:54;35.63;;;16.55;;
57627;SDS011;43451;49.060;10.616;2022-12-10T16:10:21;34.30;;;17.13;;
57627;SDS011;43451;49.060;10.616;2022-12-10T16:12:49;34.53;;;16.23;;
57627;SDS011;43451;49.060;10.616;2022-12-10T16:15:24;34.65;;;15.93;;
57627;SDS011;43451;49.060;10.616;2022-12-10T16:17:52;34.80;;;16.67;;
57627;SDS011;43451;49.060;10.616;2022-12-10T16:22:54;34.67;;;16.67;;
57627;SDS011;43451;49.060;10.616;2022-12-10T16:25:21;30.50;;;16.10;;
57627;SDS011;43451;49.060;10.616;2022-12-10T16:27:47;34.15;;;15.90;;
57627;SDS011;43451;49.060;10.616;2022-12-10T16:32:44;30.10;;;15.20;;
57627;SDS011;43451;49.060;10.616;2022-12-10T16:35:10;33.05;;;15.30;;
57627;SDS011;43451;49.060;10.616;2022-12-10T16:37:43;34.40;;;15.50;;
57627;SDS011;43451;49.060;10.616;2022-12-10T16:40:11;30.27;;;15.25;;
57627;SDS011;43451;49.060;10.616;2022-12-10T16:42:38;32.85;;;15.00;;
57627;SDS011;43451;49.060;10.616;2022-12-10T16:45:09;33.13;;;16.05;;
57627;SDS011;43451;49.060;10.616;2022-12-10T16:47:41;31.42;;;15.65;;
57627;SDS011;43451;49.060;10.616;2022-12-10T16:50:07;31.75;;;15.75;;
57627;SDS011;43451;49.060;10.616;2022-12-10T16:52:33;33.42;;;16.65;;
57627;SDS011;43451;49.060;10.616;2022-12-10T16:54:59;36.30;;;17.90;;
57627;SDS011;43451;49.060;10.616;2022-12-10T16:57:24;37.75;;;17.95;;
57627;SDS011;43451;49.060;10.616;2022-12-10T16:59:50;36.70;;;18.73;;
57627;SDS011;43451;49.060;10.616;2022-12-10T17:02:16;33.28;;;17.13;;
57627;SDS011;43451;49.060;10.616;2022-12-10T17:04:42;32.92;;;16.38;;
57627;SDS011;43451;49.060;10.616;2022-12-10T17:07:10;34.22;;;17.42;;
57627;SDS011;43451;49.060;10.616;2022-12-10T17:09:35;37.33;;;17.45;;
57627;SDS011;43451;49.060;10.616;2022-12-10T17:12:02;34.97;;;17.00;;